createdAt,value
2023-01-07T00:01:59.599Z,99196.16
2023-01-07T00:04:27.226Z,99196.75
2023-01-07T00:06:54.878Z,99203.72
2023-01-07T00:09:22.494Z,99192.28
2023-01-07T00:11:50.200Z,99165.88
2023-01-07T00:14:18.039Z,99196.91
2023-01-07T00:16:45.698Z,99202.81
2023-01-07T00:19:15.993Z,99187.84
2023-01-07T00:21:44.319Z,99213.69
2023-01-07T00:24:12.709Z,99202.88
2023-01-07T00:26:41.179Z,99172.88
2023-01-07T00:29:09.417Z,99201.13
2023-01-07T00:31:40.233Z,99203.88
2023-01-07T00:34:09.258Z,99203.63
2023-01-07T00:36:38.695Z,99193.94
2023-01-07T00:39:12.894Z,99196.25
2023-01-07T00:41:40.605Z,99200.69
2023-01-07T00:44:08.991Z,99204.88
2023-01-07T00:46:36.761Z,99206.78
2023-01-07T00:49:04.631Z,99210.56
2023-01-07T00:51:32.386Z,99199.22
2023-01-07T00:54:00.069Z,99210.16
2023-01-07T00:56:27.808Z,99203.38
2023-01-07T00:58:55.488Z,99203.69
2023-01-07T01:01:23.622Z,99209.53
2023-01-07T01:03:51.400Z,99210.50
2023-01-07T01:06:19.002Z,99200.56
2023-01-07T01:08:48.176Z,99211.09
2023-01-07T01:11:17.632Z,99198.41
2023-01-07T01:13:46.559Z,99208.53
2023-01-07T01:16:18.441Z,99203.56
2023-01-07T01:18:46.475Z,99207.69
2023-01-07T01:21:17.286Z,99198.56
2023-01-07T01:23:45.578Z,99215.66
2023-01-07T01:26:16.108Z,99208.19
2023-01-07T01:28:44.723Z,99213.91
2023-01-07T01:31:14.543Z,99222.22
2023-01-07T01:33:55.129Z,99218.16
2023-01-07T01:36:23.885Z,99192.09
2023-01-07T01:38:53.111Z,99221.53
2023-01-07T01:41:21.837Z,99210.69
2023-01-07T01:43:52.358Z,99211.25
2023-01-07T01:46:37.901Z,99212.66
2023-01-07T01:49:27.627Z,99201.38
2023-01-07T01:52:11.162Z,99190.94
2023-01-07T01:54:41.112Z,99209.25
2023-01-07T01:57:10.087Z,99173.34
2023-01-07T01:59:43.029Z,99182.81
2023-01-07T02:02:17.588Z,99204.03
2023-01-07T02:04:45.727Z,99196.50
2023-01-07T02:07:17.358Z,99201.22
2023-01-07T02:10:01.413Z,99204.03
2023-01-07T02:13:05.562Z,99191.91
2023-01-07T02:15:36.052Z,99197.06
2023-01-07T02:18:18.981Z,99194.72
2023-01-07T02:21:17.734Z,99197.25
2023-01-07T02:24:10.349Z,99190.44
2023-01-07T02:26:56.764Z,99188.59
2023-01-07T02:29:49.515Z,99190.78
2023-01-07T02:32:29.396Z,99180.97
2023-01-07T02:35:42.133Z,99184.13
2023-01-07T02:38:19.052Z,99182.69
2023-01-07T02:41:03.054Z,99183.19
2023-01-07T02:43:48.277Z,99160.72
2023-01-07T02:46:24.911Z,99186.19
2023-01-07T02:48:52.751Z,99178.47
2023-01-07T02:51:21.202Z,99180.47
2023-01-07T02:53:49.964Z,99179.56
2023-01-07T02:56:40.729Z,99179.88
2023-01-07T02:59:31.808Z,99192.56
2023-01-07T03:02:03.020Z,99182.13
2023-01-07T03:04:43.319Z,99179.63
2023-01-07T03:07:50.362Z,99176.00
2023-01-07T03:10:20.759Z,99173.84
2023-01-07T03:12:56.751Z,99178.41
2023-01-07T03:15:31.188Z,99177.00
2023-01-07T03:18:09.334Z,99171.34
2023-01-07T03:20:39.697Z,99176.06
2023-01-07T03:23:11.343Z,99167.59
2023-01-07T03:25:45.862Z,99167.59
2023-01-07T03:28:17.228Z,99166.50
2023-01-07T03:30:45.974Z,99167.59
2023-01-07T03:33:13.625Z,99172.75
2023-01-07T03:35:46.638Z,99147.38
2023-01-07T03:38:18.125Z,99165.28
2023-01-07T03:40:46.199Z,99165.78
2023-01-07T03:43:14.748Z,99169.25
2023-01-07T03:45:43.764Z,99155.50
2023-01-07T03:48:11.439Z,99166.00
2023-01-07T03:50:39.769Z,99158.16
2023-01-07T03:53:08.474Z,99157.22
2023-01-07T03:55:38.672Z,99156.81
2023-01-07T03:58:06.392Z,99157.31
2023-01-07T04:00:34.079Z,99158.78
2023-01-07T04:03:11.591Z,99161.34
2023-01-07T04:05:42.727Z,99155.31
2023-01-07T04:08:11.749Z,99151.72
2023-01-07T04:10:40.592Z,99159.09
2023-01-07T04:13:08.658Z,99153.06
2023-01-07T04:15:37.410Z,99144.84
2023-01-07T04:18:05.275Z,99132.97
2023-01-07T04:20:33.377Z,99155.53
2023-01-07T04:23:01.080Z,99161.84
2023-01-07T04:25:29.475Z,99153.13
2023-01-07T04:27:57.230Z,99153.31
2023-01-07T04:30:25.198Z,99144.91
2023-01-07T04:32:52.923Z,99159.78
2023-01-07T04:35:20.632Z,99152.53
2023-01-07T04:37:48.364Z,99152.63
2023-01-07T04:40:16.501Z,99159.41
2023-01-07T04:42:44.705Z,99154.28
2023-01-07T04:45:12.579Z,99151.88
2023-01-07T04:47:40.603Z,99149.44
2023-01-07T04:50:09.337Z,99148.88
2023-01-07T04:52:37.864Z,99150.34
2023-01-07T04:55:11.061Z,99156.13
2023-01-07T04:57:38.848Z,99150.06
2023-01-07T05:00:08.824Z,99146.50
2023-01-07T05:02:36.588Z,99155.41
2023-01-07T05:05:04.685Z,99150.78
2023-01-07T05:07:32.636Z,99148.31
2023-01-07T05:10:00.541Z,99141.69
2023-01-07T05:12:29.341Z,99146.06
2023-01-07T05:14:57.114Z,99144.06
2023-01-07T05:17:25.152Z,99142.97
2023-01-07T05:19:53.966Z,99119.94
2023-01-07T05:22:21.825Z,99145.69
2023-01-07T05:24:49.585Z,99145.09
2023-01-07T05:27:18.345Z,99135.59
2023-01-07T05:29:46.140Z,99144.16
2023-01-07T05:32:13.885Z,99144.50
2023-01-07T05:34:42.523Z,99144.84
2023-01-07T05:37:10.173Z,99153.38
2023-01-07T05:39:39.844Z,99143.50
2023-01-07T05:42:08.789Z,99152.75
2023-01-07T05:44:36.517Z,99160.84
2023-01-07T05:47:04.184Z,99157.34
2023-01-07T05:49:31.873Z,99146.19
2023-01-07T05:51:59.556Z,99148.31
2023-01-07T05:54:27.251Z,99156.13
2023-01-07T05:56:54.961Z,99136.78
2023-01-07T05:59:22.642Z,99148.88
2023-01-07T06:01:50.329Z,99152.81
2023-01-07T06:04:18.025Z,99159.38
2023-01-07T06:06:45.629Z,99153.66
2023-01-07T06:09:13.400Z,99152.69
2023-01-07T06:11:41.020Z,99158.31
2023-01-07T06:14:08.688Z,99165.53
2023-01-07T06:16:36.315Z,99146.75
2023-01-07T06:19:04.132Z,99110.31
2023-01-07T06:21:31.805Z,99154.16
2023-01-07T06:23:59.410Z,99149.97
2023-01-07T06:26:27.051Z,99157.41
2023-01-07T06:28:54.711Z,99148.06
2023-01-07T06:31:22.491Z,99157.88
2023-01-07T06:33:50.222Z,99156.97
2023-01-07T06:36:17.813Z,99153.31
2023-01-07T06:38:45.496Z,99145.88
2023-01-07T06:41:13.246Z,99158.13
2023-01-07T06:43:40.891Z,99158.19
2023-01-07T06:46:08.796Z,99162.44
2023-01-07T06:48:36.543Z,99159.38
2023-01-07T06:51:04.405Z,99142.13
2023-01-07T06:53:32.211Z,99160.69
2023-01-07T06:55:59.841Z,99165.28
2023-01-07T06:58:27.496Z,99171.31
2023-01-07T07:00:55.208Z,99172.28
2023-01-07T07:03:22.925Z,99174.31
2023-01-07T07:05:50.564Z,99170.03
2023-01-07T07:08:18.187Z,99172.72
2023-01-07T07:10:45.819Z,99165.97
2023-01-07T07:13:13.477Z,99175.47
2023-01-07T07:15:41.207Z,99172.47
2023-01-07T07:18:09.341Z,99166.28
2023-01-07T07:20:37.009Z,99169.66
2023-01-07T07:23:04.747Z,99171.31
2023-01-07T07:25:32.445Z,99158.50
2023-01-07T07:28:00.114Z,99175.72
2023-01-07T07:30:45.941Z,99171.03
2023-01-07T07:33:19.021Z,99169.78
2023-01-07T07:35:46.968Z,99165.56
2023-01-07T07:38:14.691Z,99164.44
2023-01-07T07:40:42.416Z,99106.63
2023-01-07T07:43:12.950Z,99165.19
2023-01-07T07:45:42.177Z,99165.38
2023-01-07T07:48:11.352Z,99168.13
2023-01-07T07:50:39.163Z,99179.16
2023-01-07T07:53:10.119Z,99178.97
2023-01-07T07:55:39.129Z,99171.28
2023-01-07T07:58:07.501Z,99174.06
2023-01-07T08:00:35.189Z,99170.25
2023-01-07T08:03:02.969Z,99172.19
2023-01-07T08:05:31.016Z,99174.66
2023-01-07T08:07:59.101Z,99174.19
2023-01-07T08:10:30.294Z,99174.47
2023-01-07T08:12:57.983Z,99178.53
2023-01-07T08:15:25.655Z,99169.25
2023-01-07T08:18:08.424Z,99171.22
2023-01-07T08:20:38.780Z,99169.53
2023-01-07T08:23:08.425Z,99165.06
2023-01-07T08:25:36.260Z,99167.59
2023-01-07T08:28:04.575Z,99166.34
2023-01-07T08:30:32.576Z,99118.88
2023-01-07T08:33:00.591Z,99168.00
2023-01-07T08:35:28.386Z,99165.59
2023-01-07T08:38:07.269Z,99158.84
2023-01-07T08:40:35.518Z,99168.44
2023-01-07T08:43:05.730Z,99164.91
2023-01-07T08:45:34.073Z,99163.78
2023-01-07T08:48:01.781Z,99157.88
2023-01-07T08:50:32.064Z,99161.41
2023-01-07T08:53:00.454Z,99168.06
2023-01-07T08:55:29.284Z,99161.59
2023-01-07T08:57:57.266Z,99163.88
2023-01-07T09:00:25.801Z,99159.78
2023-01-07T09:02:53.649Z,99155.69
2023-01-07T09:05:21.324Z,99150.50
2023-01-07T09:07:52.917Z,99159.00
2023-01-07T09:10:21.084Z,99161.44
2023-01-07T09:12:48.753Z,99135.28
2023-01-07T09:15:16.547Z,99163.44
2023-01-07T09:17:44.235Z,99164.31
2023-01-07T09:20:11.935Z,99165.09
2023-01-07T09:22:39.938Z,99140.56
2023-01-07T09:25:06.758Z,99143.03
2023-01-07T09:27:52.814Z,99169.00
2023-01-07T09:30:20.699Z,99163.69
2023-01-07T09:32:48.322Z,99158.19
2023-01-07T09:35:16.649Z,99158.75
2023-01-07T09:37:44.314Z,99160.94
2023-01-07T09:40:24.348Z,99149.19
2023-01-07T09:42:58.901Z,99143.28
2023-01-07T09:45:32.359Z,99154.56
2023-01-07T09:48:03.874Z,99155.09
2023-01-07T09:50:56.712Z,99149.63
2023-01-07T09:53:31.471Z,99146.44
2023-01-07T09:56:10.962Z,99131.84
2023-01-07T09:58:42.923Z,99144.25
2023-01-07T10:01:27.765Z,99141.25
2023-01-07T10:04:02.596Z,99137.09
2023-01-07T10:06:42.949Z,99127.84
2023-01-07T10:09:37.648Z,99130.81
2023-01-07T10:12:27.279Z,99112.41
2023-01-07T10:15:13.478Z,99109.66
2023-01-07T10:17:47.296Z,99109.75
2023-01-07T10:20:24.106Z,99107.81
2023-01-07T10:22:54.793Z,99099.28
2023-01-07T10:25:31.089Z,99097.84
2023-01-07T10:28:05.803Z,99100.78
2023-01-07T10:30:41.817Z,99095.31
2023-01-07T10:33:30.131Z,99096.38
2023-01-07T10:36:29.836Z,99081.56
2023-01-07T10:39:18.941Z,99081.28
2023-01-07T10:42:04.789Z,99076.94
2023-01-07T10:44:41.269Z,99070.63
2023-01-07T10:47:46.027Z,99067.81
2023-01-07T10:50:37.839Z,99063.22
2023-01-07T10:53:28.730Z,99057.44
2023-01-07T10:56:18.519Z,99055.84
2023-01-07T10:58:48.998Z,99043.75
2023-01-07T11:01:38.293Z,99053.69
2023-01-07T11:04:14.323Z,99049.25
2023-01-07T11:06:45.562Z,99047.59
2023-01-07T11:09:32.358Z,99050.94
2023-01-07T11:12:06.547Z,99038.78
2023-01-07T11:14:37.161Z,99030.88
2023-01-07T11:17:15.538Z,99029.22
2023-01-07T11:19:49.489Z,99030.59
2023-01-07T11:22:26.350Z,99019.59
2023-01-07T11:25:16.476Z,99012.44
2023-01-07T11:27:46.784Z,99009.72
2023-01-07T11:30:33.827Z,99002.00
2023-01-07T11:33:05.410Z,98975.88
2023-01-07T11:35:33.888Z,98984.09
2023-01-07T11:38:02.522Z,98990.97
2023-01-07T11:40:32.749Z,98960.69
2023-01-07T11:43:05.697Z,98972.81
2023-01-07T11:45:38.254Z,98944.47
2023-01-07T11:48:05.907Z,98963.16
2023-01-07T11:50:36.451Z,98962.88
2023-01-07T11:53:40.505Z,98955.97
2023-01-07T11:56:23.122Z,98957.66
2023-01-07T11:58:53.429Z,98955.47
2023-01-07T12:01:23.747Z,98952.97
2023-01-07T12:03:54.430Z,98947.19
2023-01-07T12:06:27.189Z,98947.19
2023-01-07T12:09:06.824Z,98946.34
2023-01-07T12:11:38.253Z,98947.72
2023-01-07T12:14:26.944Z,98931.72
2023-01-07T12:16:56.452Z,98927.88
2023-01-07T12:19:42.813Z,98926.56
2023-01-07T12:22:28.296Z,98932.00
2023-01-07T12:25:14.758Z,98927.03
2023-01-07T12:28:07.983Z,98919.91
2023-01-07T12:30:49.603Z,98914.66
2023-01-07T12:33:41.168Z,98907.25
2023-01-07T12:36:19.432Z,98899.78
2023-01-07T12:38:55.486Z,98901.72
2023-01-07T12:41:33.470Z,98908.34
2023-01-07T12:44:12.543Z,98901.97
2023-01-07T12:46:46.140Z,98899.78
2023-01-07T12:49:29.719Z,98897.81
2023-01-07T12:52:20.446Z,98887.91
2023-01-07T12:54:58.459Z,98888.88
2023-01-07T12:57:38.322Z,98882.81
2023-01-07T13:00:14.442Z,98886.97
2023-01-07T13:03:02.342Z,98881.84
2023-01-07T13:05:46.198Z,98875.50
2023-01-07T13:08:26.707Z,98881.19
2023-01-07T13:11:58.300Z,98866.91
2023-01-07T13:14:31.070Z,98866.66
2023-01-07T13:17:27.704Z,98869.69
2023-01-07T13:19:56.631Z,98863.41
2023-01-07T13:22:36.982Z,98866.66
2023-01-07T13:25:32.995Z,98857.56
2023-01-07T13:28:12.452Z,98862.00
2023-01-07T13:30:48.801Z,98862.25
2023-01-07T13:33:28.031Z,98867.97
2023-01-07T13:36:12.770Z,98863.03
2023-01-07T13:38:55.488Z,98857.53
2023-01-07T13:41:42.377Z,98864.41
2023-01-07T13:44:43.376Z,98854.56
2023-01-07T13:47:15.913Z,98854.22
2023-01-07T13:49:56.840Z,98859.72
2023-01-07T13:52:29.282Z,98856.47
2023-01-07T13:54:59.534Z,98857.78
2023-01-07T13:57:27.340Z,98852.00
2023-01-07T13:59:56.958Z,98827.31
2023-01-07T14:02:26.638Z,98855.81
2023-01-07T14:05:12.735Z,98852.53
2023-01-07T14:08:03.549Z,98826.72
2023-01-07T14:10:36.482Z,98838.25
2023-01-07T14:13:31.017Z,98831.22
2023-01-07T14:16:25.399Z,98848.25
2023-01-07T14:19:12.957Z,98848.53
2023-01-07T14:21:52.846Z,98843.56
2023-01-07T14:24:49.993Z,98851.53
2023-01-07T14:27:35.685Z,98848.78
2023-01-07T14:30:17.233Z,98853.44
2023-01-07T14:32:45.785Z,98847.63
2023-01-07T14:35:13.441Z,98844.09
2023-01-07T14:37:45.151Z,98843.25
2023-01-07T14:40:40.243Z,98835.53
2023-01-07T14:43:41.750Z,98834.41
2023-01-07T14:46:11.082Z,98796.09
2023-01-07T14:48:39.059Z,98821.84
2023-01-07T14:51:30.012Z,98830.59
2023-01-07T14:54:15.836Z,98821.16
2023-01-07T14:56:43.439Z,98818.63
2023-01-07T14:59:28.487Z,98806.97
2023-01-07T15:02:29.673Z,98787.47
2023-01-07T15:05:18.577Z,98803.41
2023-01-07T15:08:13.391Z,98805.38
2023-01-07T15:11:00.387Z,98807.38
2023-01-07T15:13:56.120Z,98803.16
2023-01-07T15:16:24.413Z,98799.34
2023-01-07T15:18:54.308Z,98773.75
2023-01-07T15:21:52.647Z,98797.06
2023-01-07T15:24:26.317Z,98795.91
2023-01-07T15:27:09.076Z,98789.03
2023-01-07T15:29:52.326Z,98793.41
2023-01-07T15:32:35.136Z,98782.31
2023-01-07T15:35:10.455Z,98784.78
2023-01-07T15:37:38.180Z,98779.63
2023-01-07T15:40:07.629Z,98772.44
2023-01-07T15:42:35.799Z,98783.38
2023-01-07T15:45:03.546Z,98768.38
2023-01-07T15:47:33.572Z,98781.56
2023-01-07T15:50:19.807Z,98785.53
2023-01-07T15:52:59.865Z,98785.25
2023-01-07T15:55:36.287Z,98776.63
2023-01-07T15:58:13.250Z,98785.72
2023-01-07T16:00:42.037Z,98782.97
2023-01-07T16:03:16.804Z,98777.91
2023-01-07T16:05:44.605Z,98785.66
2023-01-07T16:08:21.098Z,98790.66
2023-01-07T16:11:00.540Z,98780.09
2023-01-07T16:13:29.150Z,98778.31
2023-01-07T16:16:01.545Z,98785.16
2023-01-07T16:18:29.289Z,98780.25
2023-01-07T16:21:05.498Z,98774.81
2023-01-07T16:23:35.780Z,98777.84
2023-01-07T16:26:07.877Z,98749.03
2023-01-07T16:28:50.276Z,98767.56
2023-01-07T16:31:21.857Z,98756.59
2023-01-07T16:33:54.134Z,98769.81
2023-01-07T16:36:22.867Z,98773.66
2023-01-07T16:38:54.009Z,98771.13
2023-01-07T16:41:24.281Z,98772.03
2023-01-07T16:43:54.992Z,98765.41
2023-01-07T16:46:36.005Z,98770.50
2023-01-07T16:49:12.629Z,98763.63
2023-01-07T16:51:48.271Z,98767.19
2023-01-07T16:54:19.715Z,98769.19
2023-01-07T16:56:57.972Z,98759.56
2023-01-07T16:59:32.114Z,98768.63
2023-01-07T17:02:03.457Z,98766.75
2023-01-07T17:04:31.501Z,98752.56
2023-01-07T17:07:04.539Z,98774.78
2023-01-07T17:09:32.141Z,98775.34
2023-01-07T17:11:59.856Z,98768.97
2023-01-07T17:14:37.039Z,98763.44
2023-01-07T17:17:22.627Z,98763.19
2023-01-07T17:20:18.991Z,98773.16
2023-01-07T17:22:49.497Z,98771.53
2023-01-07T17:25:28.196Z,98769.59
2023-01-07T17:28:01.562Z,98770.47
2023-01-07T17:30:37.216Z,98768.28
2023-01-07T17:33:05.334Z,98770.28
2023-01-07T17:35:33.012Z,98762.03
2023-01-07T17:38:00.677Z,98776.56
2023-01-07T17:40:28.360Z,98784.88
2023-01-07T17:43:14.343Z,98780.13
2023-01-07T17:45:42.067Z,98788.47
2023-01-07T17:48:14.558Z,98769.19
2023-01-07T17:50:43.060Z,98778.22
2023-01-07T17:53:23.128Z,98775.16
2023-01-07T17:55:50.893Z,98771.28
2023-01-07T17:58:31.810Z,98763.94
2023-01-07T18:01:01.672Z,98782.66
2023-01-07T18:03:29.867Z,98781.25
2023-01-07T18:05:57.547Z,98770.06
2023-01-07T18:08:25.221Z,98772.22
2023-01-07T18:11:10.940Z,98771.13
2023-01-07T18:13:38.673Z,98769.44
2023-01-07T18:16:06.970Z,98769.72
2023-01-07T18:18:34.635Z,98745.88
2023-01-07T18:21:02.292Z,98779.69
2023-01-07T18:23:29.999Z,98773.59
2023-01-07T18:25:57.728Z,98770.59
2023-01-07T18:28:25.575Z,98764.78
2023-01-07T18:30:53.202Z,98759.84
2023-01-07T18:33:20.870Z,98759.31
2023-01-07T18:35:49.094Z,98767.88
2023-01-07T18:38:17.460Z,98759.66
2023-01-07T18:40:45.114Z,98736.31
2023-01-07T18:43:15.097Z,98764.06
2023-01-07T18:45:44.090Z,98761.34
2023-01-07T18:48:12.805Z,98757.97
2023-01-07T18:50:45.171Z,98760.19
2023-01-07T18:53:13.413Z,98756.56
2023-01-07T18:55:42.801Z,98754.44
2023-01-07T18:58:14.032Z,98760.72
2023-01-07T19:00:42.449Z,98744.13
2023-01-07T19:03:11.790Z,98742.53
2023-01-07T19:05:41.018Z,98744.53
2023-01-07T19:08:08.710Z,98748.94
2023-01-07T19:10:37.394Z,98745.34
2023-01-07T19:13:05.041Z,98746.19
2023-01-07T19:15:33.724Z,98742.84
2023-01-07T19:18:01.362Z,98747.00
2023-01-07T19:20:29.034Z,98745.91
2023-01-07T19:23:00.308Z,98742.84
2023-01-07T19:25:29.630Z,98727.75
2023-01-07T19:27:57.870Z,98738.75
2023-01-07T19:30:26.199Z,98741.50
2023-01-07T19:32:54.480Z,98749.25
2023-01-07T19:35:22.167Z,98744.31
2023-01-07T19:37:50.450Z,98743.25
2023-01-07T19:40:18.267Z,98753.09
2023-01-07T19:42:47.776Z,98752.56
2023-01-07T19:45:15.568Z,98739.97
2023-01-07T19:47:43.934Z,98747.94
2023-01-07T19:50:12.168Z,98746.63
2023-01-07T19:52:39.882Z,98765.31
2023-01-07T19:55:08.173Z,98766.44
2023-01-07T19:57:35.906Z,98764.50
2023-01-07T20:00:03.771Z,98765.91
2023-01-07T20:02:32.435Z,98772.25
2023-01-07T20:05:00.188Z,98747.88
2023-01-07T20:07:28.892Z,98764.56
2023-01-07T20:09:56.583Z,98764.25
2023-01-07T20:12:24.313Z,98770.34
2023-01-07T20:14:52.127Z,98768.72
2023-01-07T20:17:19.783Z,98770.63
2023-01-07T20:19:47.534Z,98774.78
2023-01-07T20:22:15.231Z,98765.72
2023-01-07T20:24:42.860Z,98761.91
2023-01-07T20:27:10.556Z,98773.97
2023-01-07T20:29:38.740Z,98764.91
2023-01-07T20:32:08.299Z,98759.38
2023-01-07T20:34:36.023Z,98764.59
2023-01-07T20:37:04.360Z,98760.47
2023-01-07T20:39:32.005Z,98743.44
2023-01-07T20:41:59.660Z,98751.69
2023-01-07T20:44:27.297Z,98756.31
2023-01-07T20:46:55.074Z,98736.66
2023-01-07T20:49:23.256Z,98756.91
2023-01-07T20:51:51.337Z,98756.63
2023-01-07T20:54:18.976Z,98751.94
2023-01-07T20:56:46.648Z,98748.09
2023-01-07T20:59:15.864Z,98754.97
2023-01-07T21:01:43.722Z,98751.09
2023-01-07T21:04:13.161Z,98739.78
2023-01-07T21:06:41.146Z,98738.97
2023-01-07T21:09:08.960Z,98732.25
2023-01-07T21:11:36.651Z,98733.16
2023-01-07T21:14:04.628Z,98723.25
2023-01-07T21:16:32.580Z,98723.22
2023-01-07T21:19:00.261Z,98728.72
2023-01-07T21:21:27.906Z,98722.38
2023-01-07T21:23:55.908Z,98715.00
2023-01-07T21:26:24.945Z,98713.25
2023-01-07T21:28:56.499Z,98712.19
2023-01-07T21:31:24.989Z,98712.72
2023-01-07T21:33:56.359Z,98711.13
2023-01-07T21:36:25.676Z,98704.56
2023-01-07T21:38:59.501Z,98713.25
2023-01-07T21:41:28.347Z,98724.84
2023-01-07T21:43:57.431Z,98708.91
2023-01-07T21:46:25.433Z,98700.16
2023-01-07T21:48:53.116Z,98710.88
2023-01-07T21:51:24.110Z,98721.63
2023-01-07T21:53:55.564Z,98703.38
2023-01-07T21:56:24.457Z,98696.59
2023-01-07T21:58:52.217Z,98706.19
2023-01-07T22:01:21.493Z,98711.69
2023-01-07T22:03:50.743Z,98706.19
2023-01-07T22:06:21.731Z,98687.31
2023-01-07T22:08:50.390Z,98715.03
2023-01-07T22:11:19.224Z,98716.13
2023-01-07T22:13:50.991Z,98723.00
2023-01-07T22:16:19.176Z,98739.28
2023-01-07T22:18:46.993Z,98735.44
2023-01-07T22:21:16.149Z,98737.63
2023-01-07T22:23:47.817Z,98723.03
2023-01-07T22:26:17.380Z,98720.00
2023-01-07T22:28:48.563Z,98734.88
2023-01-07T22:31:23.905Z,98727.13
2023-01-07T22:33:52.290Z,98713.75
2023-01-07T22:36:30.299Z,98735.69
2023-01-07T22:39:02.721Z,98737.09
2023-01-07T22:41:33.047Z,98730.75
2023-01-07T22:44:05.166Z,98740.66
2023-01-07T22:46:35.099Z,98727.72
2023-01-07T22:49:03.017Z,98720.28
2023-01-07T22:51:36.920Z,98717.03
2023-01-07T22:54:05.782Z,98710.47
2023-01-07T22:56:34.562Z,98716.13
2023-01-07T22:59:02.199Z,98686.25
2023-01-07T23:01:29.942Z,98702.72
2023-01-07T23:03:57.736Z,98699.91
2023-01-07T23:06:25.448Z,98678.50
2023-01-07T23:08:53.106Z,98706.25
2023-01-07T23:11:34.599Z,98697.13
2023-01-07T23:14:02.934Z,98698.81
2023-01-07T23:16:30.697Z,98695.22
2023-01-07T23:18:58.371Z,98665.63
2023-01-07T23:21:26.129Z,98690.88
2023-01-07T23:23:53.773Z,98676.88
2023-01-07T23:26:21.554Z,98683.69
2023-01-07T23:28:49.367Z,98659.53
2023-01-07T23:31:17.116Z,98684.56
2023-01-07T23:33:44.725Z,98673.25
2023-01-07T23:36:12.403Z,98674.94
2023-01-07T23:38:40.359Z,98674.06
2023-01-07T23:41:10.021Z,98676.81
2023-01-07T23:43:38.362Z,98666.66
2023-01-07T23:46:07.741Z,98655.66
2023-01-07T23:48:37.353Z,98664.72
2023-01-07T23:51:08.176Z,98643.59
2023-01-07T23:53:36.471Z,98668.78
2023-01-07T23:56:05.731Z,98659.19
2023-01-07T23:58:33.556Z,98648.22
